Helena, Illinois
Current Conditions -  °F | °C
As of 12:57 AM on Sunday 26 Oct 2014 (Local Time) from KLWV Reporting Station
Haze Haze  
Wind Chill: 57°   Ceiling: Unl
Heat Index: 57°   Visibility: 1.7mi
Dew Point: 51°   Wind: 5mph
Humidity: 81%   Direction: 310°NW
Pressure: 30"   Gusts: NA
Location:  38.793°N, 87.8326°W
Report Text: KLWV 260557Z AUTO 31004KT 1 3/4SM HZ CLR 14/11 A3000 RMK AO2 T01390106
Loading
Personal Weather Stations






























Interactive Weather Map
Tropical Storm Tracking
New forecast layout! Learn more

10-Day Weather Forecast

Advertisements
Track Severe Weather on mobile